Akron, CO

3:40 PM MDT on July 31, 2014 (GMT -0600)
Akron-Washington County (KAKO) Elev 4662 ft | 40.17 °N, 103.21 °W | Change Station

Current weather conditions updated 47 minutes ago

Clear
Clear
77 °F
Feels Like 77 °F
N
6
Wind Variable Wind from West

Today is forecast to be Much Warmer than yesterday.

Today
High -- | Low -- °F
--% Chance of Precip.
Yesterday
High -- | Low -- °F
Precip. -- in
5:50 AM 8:07 PM
Waxing Crescent, 21% visible
Pressure 30.09 in
Visibility 10.0 miles
Clouds Clear
Dew Point 45 °F
Humidity 32%
Rainfall 0.00 in
Snow Depth Not available.
UV 10 out of 12
Pollen 4.90 out of 12
Air Quality Not available.
Flu Activity Not available.
METAR KAKO 312053Z AUTO 28005KT 10SM CLR 25/07 A3023 RMK AO2 RAE1955 SLP188 P0000 60000 T02500072 56011

More Conditions Fewer Conditions

Pressure 30.09 in
Visibility 10.0 miles
Clouds Clear
Dew Point 45 °F
Humidity 32%
Rainfall 0.00 in
Snow Depth Not available.
UV 10 out of 12
Pollen 4.90 out of 12
Air Quality Not available.
Flu Activity Not available.
METAR KAKO 312053Z AUTO 28005KT 10SM CLR 25/07 A3023 RMK AO2 RAE1955 SLP188 P0000 60000 T02500072 56011

More Conditions Fewer Conditions

10-Day Weather Forecast

Almanac

Astronomy

Jul. 31, 2014 Rise Set
Actual Time 5:50 AM MDT 8:07 PM MDT
Civil Twilight 5:19 AM MDT 8:37 PM MDT
Nautical Twilight 4:42 AM MDT 9:15 PM MDT
Astronomical Twilight 4:00 AM MDT 9:56 PM MDT
Moon 10:19 AM MDT 10:21 PM MDT
Length of Visible Light 15h 18m
Length of Day
14h 17m
Tomorrow will be 1m 58s shorter.
Waxing Crescent, 21% of the Moon is Illuminated
Today
Waxing Crescent
Aug 3
First Quarter
Aug 10
Full
Aug 17
Last Quarter
Aug 25
New

Today's Extremes

State Highs State Lows

Community

WunderPhotos

Upload Photos

1,739,457 photos uploaded!

Nearby

Snow Depth

Station Depth Elevation
University Camp 0 in 10300 ft
Wild Basin 0 in 9560 ft
Echo Lake 0 in 10600 ft
Willow Park 3 in 10700 ft
Berthoud Summit 0 in 11300 ft

Earthquake Activity

City Distance Mag. Time & Date
No recent earthquake activity has been reported nearby.
Minimum magnitude displayed is 2.5.

Coastal Water Temperatures

Place Temperature
No Stations Reporting

Nearby Weather Stations

Station Location Temp. Heat Index Dew Point Humidity Wind Precip. Elev Updated Type
Northern Washington County, Akron, CO 84.2 °F 83 °F 53 °F 34% SSW  at  3.7 mph - / hr 4453 ft 3:31 PM MDT Normal

Show More Stations Show Fewer Stations